createdAt,value
2023-09-26T00:00:22.829Z,13.11
2023-09-26T00:02:52.297Z,13.10
2023-09-26T00:05:20.384Z,13.19
2023-09-26T00:07:49.320Z,13.22
2023-09-26T00:10:17.531Z,13.19
2023-09-26T00:12:44.350Z,13.07
2023-09-26T00:15:12.960Z,13.03
2023-09-26T00:17:40.570Z,13.00
2023-09-26T00:20:27.584Z,13.06
2023-09-26T00:22:54.281Z,13.08
2023-09-26T00:25:21.022Z,13.10
2023-09-26T00:27:47.739Z,13.12
2023-09-26T00:30:15.978Z,13.09
2023-09-26T00:32:42.784Z,13.07
2023-09-26T00:35:12.378Z,13.06
2023-09-26T00:37:43.312Z,13.06
2023-09-26T00:40:19.791Z,13.01
2023-09-26T00:42:47.185Z,12.96
2023-09-26T00:45:14.390Z,12.97
2023-09-26T00:47:41.793Z,12.91
2023-09-26T00:50:10.653Z,12.86
2023-09-26T00:52:37.946Z,12.88
2023-09-26T00:55:05.863Z,12.84
2023-09-26T00:57:34.633Z,12.83
2023-09-26T01:00:05.071Z,12.77
2023-09-26T01:02:32.226Z,12.75
2023-09-26T01:04:59.137Z,12.72
2023-09-26T01:07:26.016Z,12.70
2023-09-26T01:09:52.772Z,12.67
2023-09-26T01:12:21.114Z,12.71
2023-09-26T01:14:47.735Z,12.64
2023-09-26T01:17:14.875Z,12.61
2023-09-26T01:19:41.513Z,12.58
2023-09-26T01:22:08.252Z,12.60
2023-09-26T01:24:36.319Z,12.57
2023-09-26T01:27:02.888Z,12.49
2023-09-26T01:29:29.556Z,12.49
2023-09-26T01:31:56.210Z,12.49
2023-09-26T01:34:22.827Z,12.52
2023-09-26T01:36:49.438Z,12.45
2023-09-26T01:39:16.250Z,12.40
2023-09-26T01:41:42.798Z,12.46
2023-09-26T01:44:09.990Z,12.46
2023-09-26T01:46:36.647Z,12.47
2023-09-26T01:49:03.372Z,12.44
2023-09-26T01:51:29.996Z,12.44
2023-09-26T01:53:56.637Z,12.43
2023-09-26T01:56:23.235Z,12.39
2023-09-26T01:58:49.836Z,12.44
2023-09-26T02:01:16.526Z,12.41
2023-09-26T02:03:43.159Z,12.37
2023-09-26T02:06:09.786Z,12.35
2023-09-26T02:08:36.442Z,12.35
2023-09-26T02:11:03.019Z,12.34
2023-09-26T02:13:29.649Z,12.29
2023-09-26T02:15:56.375Z,12.30
2023-09-26T02:18:23.058Z,12.32
2023-09-26T02:20:49.644Z,12.21
2023-09-26T02:23:16.968Z,12.17
2023-09-26T02:25:52.814Z,12.06
2023-09-26T02:28:21.143Z,12.02
2023-09-26T02:30:48.182Z,12.06
2023-09-26T02:33:15.338Z,11.99
2023-09-26T02:35:41.922Z,12.04
2023-09-26T02:38:09.498Z,12.06
2023-09-26T02:40:36.067Z,12.02
2023-09-26T02:43:02.692Z,12.02
2023-09-26T02:45:31.125Z,11.98
2023-09-26T02:47:59.530Z,11.89
2023-09-26T02:50:26.768Z,11.84
2023-09-26T02:52:53.548Z,11.79
2023-09-26T02:55:21.547Z,11.77
2023-09-26T02:57:48.272Z,11.82
2023-09-26T03:00:19.531Z,11.80
2023-09-26T03:02:47.653Z,11.80
2023-09-26T03:05:15.981Z,11.75
2023-09-26T03:07:43.384Z,11.76
2023-09-26T03:10:10.946Z,11.84
2023-09-26T03:12:37.769Z,11.80
2023-09-26T03:15:04.981Z,11.64
2023-09-26T03:17:31.634Z,11.62
2023-09-26T03:19:58.780Z,11.63
2023-09-26T03:22:25.481Z,11.56
2023-09-26T03:24:52.130Z,11.63
2023-09-26T03:27:18.765Z,11.51
2023-09-26T03:29:45.545Z,11.48
2023-09-26T03:32:12.124Z,11.45
2023-09-26T03:34:38.790Z,11.48
2023-09-26T03:37:05.386Z,11.45
2023-09-26T03:39:32.033Z,11.54
2023-09-26T03:41:58.665Z,11.62
2023-09-26T03:44:25.282Z,11.57
2023-09-26T03:46:52.140Z,11.48
2023-09-26T03:49:18.860Z,11.42
2023-09-26T03:51:45.492Z,11.36
2023-09-26T03:54:12.153Z,11.45
2023-09-26T03:56:38.759Z,11.43
2023-09-26T03:59:05.403Z,11.43
2023-09-26T04:01:32.025Z,11.46
2023-09-26T04:03:58.971Z,11.47
2023-09-26T04:06:25.567Z,11.49
2023-09-26T04:08:52.116Z,11.50
2023-09-26T04:11:19.136Z,11.47
2023-09-26T04:13:46.291Z,11.46
2023-09-26T04:16:13.202Z,11.42
2023-09-26T04:18:40.160Z,11.31
2023-09-26T04:21:11.944Z,11.24
2023-09-26T04:23:39.808Z,11.40
2023-09-26T04:26:16.036Z,11.36
2023-09-26T04:28:43.898Z,11.30
2023-09-26T04:31:15.124Z,11.23
2023-09-26T04:33:42.025Z,11.20
2023-09-26T04:36:09.022Z,11.17
2023-09-26T04:38:36.303Z,11.14
2023-09-26T04:41:06.713Z,11.09
2023-09-26T04:43:33.834Z,11.10
2023-09-26T04:46:01.163Z,11.11
2023-09-26T04:48:27.828Z,11.11
2023-09-26T04:50:55.487Z,11.10
2023-09-26T04:53:23.269Z,11.19
2023-09-26T04:55:50.267Z,11.20
2023-09-26T04:58:16.983Z,11.20
2023-09-26T05:00:43.600Z,11.25
2023-09-26T05:03:10.497Z,11.26
2023-09-26T05:05:37.133Z,11.20
2023-09-26T05:08:03.958Z,11.14
2023-09-26T05:10:30.720Z,11.22
2023-09-26T05:12:58.367Z,11.19
2023-09-26T05:15:26.767Z,11.21
2023-09-26T05:17:53.565Z,11.16
2023-09-26T05:20:20.535Z,11.21
2023-09-26T05:22:48.803Z,11.20
2023-09-26T05:25:15.719Z,11.22
2023-09-26T05:27:44.495Z,11.23
2023-09-26T05:30:13.027Z,11.24
2023-09-26T05:32:41.455Z,11.26
2023-09-26T05:35:09.589Z,11.30
2023-09-26T05:37:37.377Z,11.19
2023-09-26T05:40:10.795Z,11.21
2023-09-26T05:42:39.752Z,11.18
2023-09-26T05:45:10.661Z,11.20
2023-09-26T05:47:37.506Z,11.24
2023-09-26T05:50:05.039Z,11.30
2023-09-26T05:52:31.792Z,11.42
2023-09-26T05:54:58.545Z,11.47
2023-09-26T05:57:27.041Z,11.47
2023-09-26T05:59:53.597Z,11.52
2023-09-26T06:02:20.306Z,11.55
2023-09-26T06:04:47.144Z,11.64
2023-09-26T06:07:14.759Z,11.75
2023-09-26T06:09:52.907Z,11.78
2023-09-26T06:12:24.711Z,11.80
2023-09-26T06:14:52.235Z,11.93
2023-09-26T06:17:18.865Z,11.91
2023-09-26T06:19:48.164Z,11.92
2023-09-26T06:22:15.746Z,11.93
2023-09-26T06:24:42.800Z,11.99
2023-09-26T06:27:09.495Z,12.08
2023-09-26T06:29:40.552Z,12.09
2023-09-26T06:32:11.331Z,12.11
2023-09-26T06:34:40.891Z,12.12
2023-09-26T06:37:08.178Z,12.17
2023-09-26T06:39:34.917Z,12.21
2023-09-26T06:42:01.627Z,12.23
2023-09-26T06:44:30.450Z,12.26
2023-09-26T06:46:57.409Z,12.39
2023-09-26T06:49:24.370Z,12.40
2023-09-26T06:51:51.674Z,12.43
2023-09-26T06:54:18.308Z,12.49
2023-09-26T06:56:44.893Z,12.58
2023-09-26T06:59:11.515Z,12.62
2023-09-26T07:01:38.184Z,12.70
2023-09-26T07:04:05.453Z,12.77
2023-09-26T07:06:32.388Z,12.86
2023-09-26T07:09:00.334Z,12.98
2023-09-26T07:11:28.191Z,13.03
2023-09-26T07:13:55.318Z,13.09
2023-09-26T07:16:22.137Z,13.14
2023-09-26T07:18:48.877Z,13.30
2023-09-26T07:21:15.540Z,13.34
2023-09-26T07:23:42.115Z,13.40
2023-09-26T07:26:15.822Z,13.44
2023-09-26T07:28:46.453Z,13.51
2023-09-26T07:31:15.469Z,13.60
2023-09-26T07:33:43.830Z,13.68
2023-09-26T07:36:11.319Z,13.78
2023-09-26T07:38:38.270Z,13.79
2023-09-26T07:41:05.204Z,13.86
2023-09-26T07:43:34.599Z,13.99
2023-09-26T07:46:09.098Z,14.05
2023-09-26T07:48:37.465Z,14.13
2023-09-26T07:51:05.795Z,14.26
2023-09-26T07:53:32.463Z,14.34
2023-09-26T07:55:59.274Z,14.47
2023-09-26T07:58:26.965Z,14.49
2023-09-26T08:00:54.415Z,14.54
2023-09-26T08:03:21.785Z,14.63
2023-09-26T08:05:48.487Z,14.67
2023-09-26T08:08:15.116Z,14.70
2023-09-26T08:10:42.093Z,14.82
2023-09-26T08:13:09.264Z,14.86
2023-09-26T08:15:36.165Z,14.91
2023-09-26T08:18:03.566Z,14.97
2023-09-26T08:20:30.376Z,15.00
2023-09-26T08:22:57.080Z,15.07
2023-09-26T08:25:24.069Z,15.14
2023-09-26T08:27:50.821Z,15.23
2023-09-26T08:30:17.501Z,15.31
2023-09-26T08:32:44.453Z,15.38
2023-09-26T08:35:11.597Z,15.45
2023-09-26T08:37:39.618Z,15.45
2023-09-26T08:40:07.825Z,15.52
2023-09-26T08:42:37.724Z,15.61
2023-09-26T08:45:05.522Z,15.69
2023-09-26T08:47:34.487Z,15.78
2023-09-26T08:50:01.267Z,15.87
2023-09-26T08:52:28.184Z,15.97
2023-09-26T08:54:55.369Z,16.03
2023-09-26T08:57:22.513Z,16.10
2023-09-26T08:59:49.863Z,16.21
2023-09-26T09:02:16.784Z,16.23
2023-09-26T09:04:45.100Z,16.35
2023-09-26T09:07:13.330Z,16.49
2023-09-26T09:10:04.795Z,16.54
2023-09-26T09:12:31.653Z,16.55
2023-09-26T09:14:58.238Z,16.61
2023-09-26T09:17:24.982Z,16.71
2023-09-26T09:19:53.700Z,16.75
2023-09-26T09:22:24.161Z,16.86
2023-09-26T09:24:55.644Z,16.99
2023-09-26T09:27:32.556Z,17.17
2023-09-26T09:30:20.409Z,17.17
2023-09-26T09:32:47.461Z,17.36
2023-09-26T09:35:14.465Z,17.49
2023-09-26T09:37:46.662Z,17.52
2023-09-26T09:40:21.102Z,17.54
2023-09-26T09:42:51.867Z,17.53
2023-09-26T09:45:19.476Z,17.54
2023-09-26T09:47:47.364Z,17.71
2023-09-26T09:50:15.085Z,17.80
2023-09-26T09:52:45.079Z,17.83
2023-09-26T09:55:24.671Z,17.88
2023-09-26T09:57:52.735Z,18.07
2023-09-26T10:00:23.609Z,18.09
2023-09-26T10:02:51.753Z,18.11
2023-09-26T10:05:20.439Z,18.20
2023-09-26T10:07:49.471Z,18.26
2023-09-26T10:10:18.776Z,18.41
2023-09-26T10:13:05.897Z,18.37
2023-09-26T10:16:09.160Z,18.45
2023-09-26T10:18:41.024Z,18.51
2023-09-26T10:21:31.885Z,18.58
2023-09-26T10:24:10.889Z,18.62
2023-09-26T10:26:50.934Z,18.65
2023-09-26T10:29:25.411Z,18.72
2023-09-26T10:31:57.267Z,18.71
2023-09-26T10:37:23.267Z,18.86
2023-09-26T10:39:50.012Z,19.05
2023-09-26T10:45:13.351Z,19.25
2023-09-26T10:47:41.762Z,19.37
2023-09-26T10:50:10.885Z,19.34
2023-09-26T10:52:37.608Z,19.36
2023-09-26T10:55:05.187Z,19.40
2023-09-26T10:57:31.973Z,19.44
2023-09-26T10:59:58.588Z,19.66
2023-09-26T11:02:25.321Z,19.70
2023-09-26T11:07:40.036Z,19.66
2023-09-26T11:10:13.943Z,19.75
2023-09-26T11:12:40.875Z,19.83
2023-09-26T11:15:09.008Z,19.82
2023-09-26T11:17:39.972Z,19.84
2023-09-26T11:20:12.723Z,19.97
2023-09-26T11:22:48.106Z,20.01
2023-09-26T11:25:15.551Z,20.03
2023-09-26T11:27:44.762Z,20.08
2023-09-26T11:30:18.550Z,20.16
2023-09-26T11:32:50.130Z,20.27
2023-09-26T11:35:17.990Z,20.28
2023-09-26T11:37:49.780Z,20.33
2023-09-26T11:40:27.931Z,20.29
2023-09-26T11:42:58.448Z,20.42
2023-09-26T11:45:30.024Z,20.62
2023-09-26T11:47:58.250Z,20.66
2023-09-26T11:50:26.392Z,20.75
2023-09-26T11:52:55.547Z,20.75
2023-09-26T11:55:23.553Z,20.78
2023-09-26T11:57:51.391Z,21.01
2023-09-26T12:00:19.129Z,21.02
2023-09-26T12:02:48.358Z,21.11
2023-09-26T12:05:16.868Z,21.23
2023-09-26T12:07:43.490Z,21.27
2023-09-26T12:10:11.382Z,21.31
2023-09-26T12:12:38.831Z,21.33
2023-09-26T12:15:21.759Z,21.30
2023-09-26T12:17:53.046Z,21.31
2023-09-26T12:20:26.179Z,21.21
2023-09-26T12:22:54.902Z,21.37
2023-09-26T12:25:25.577Z,21.42
2023-09-26T12:27:53.500Z,21.43
2023-09-26T12:30:21.496Z,21.38
2023-09-26T12:32:50.971Z,21.38
2023-09-26T12:35:18.561Z,21.53
2023-09-26T12:37:47.340Z,21.60
2023-09-26T12:40:14.729Z,21.77
2023-09-26T12:42:42.418Z,21.80
2023-09-26T12:45:10.262Z,21.74
2023-09-26T12:47:37.631Z,21.73
2023-09-26T12:50:08.608Z,21.70
2023-09-26T12:52:36.581Z,21.75
2023-09-26T12:55:05.203Z,22.01
2023-09-26T12:57:32.683Z,22.03
2023-09-26T12:59:59.611Z,22.00
2023-09-26T13:02:26.944Z,22.07
2023-09-26T13:04:55.605Z,22.11
2023-09-26T13:07:22.973Z,22.31
2023-09-26T13:09:49.734Z,22.29
2023-09-26T13:12:16.363Z,22.27
2023-09-26T13:14:43.294Z,22.23
2023-09-26T13:17:18.733Z,22.23
2023-09-26T13:19:45.892Z,22.24
2023-09-26T13:22:14.866Z,22.25
2023-09-26T13:24:42.524Z,22.28
2023-09-26T13:27:09.369Z,22.34
2023-09-26T13:29:36.126Z,22.30
2023-09-26T13:32:04.576Z,22.27
2023-09-26T13:34:32.041Z,22.17
2023-09-26T13:36:59.102Z,22.08
2023-09-26T13:39:26.267Z,22.10
2023-09-26T13:41:54.152Z,22.10
2023-09-26T13:44:20.891Z,22.23
2023-09-26T13:46:47.551Z,22.34
2023-09-26T13:49:14.785Z,22.37
2023-09-26T13:51:41.392Z,22.43
2023-09-26T13:54:08.253Z,22.36
2023-09-26T13:56:34.844Z,22.30
2023-09-26T13:59:01.542Z,22.63
2023-09-26T14:01:28.600Z,22.61
2023-09-26T14:03:55.428Z,22.61
2023-09-26T14:06:22.240Z,22.52
2023-09-26T14:08:48.938Z,22.50
2023-09-26T14:11:15.860Z,22.39
2023-09-26T14:13:42.769Z,22.39
2023-09-26T14:16:09.492Z,22.38
2023-09-26T14:18:37.719Z,22.43
2023-09-26T14:21:04.917Z,22.47
2023-09-26T14:23:32.144Z,22.54
2023-09-26T14:25:59.631Z,22.44
2023-09-26T14:28:26.558Z,22.36
2023-09-26T14:30:54.762Z,22.40
2023-09-26T14:33:21.847Z,22.33
2023-09-26T14:35:48.724Z,22.32
2023-09-26T14:38:15.407Z,22.43
2023-09-26T14:40:42.203Z,22.38
2023-09-26T14:43:09.050Z,22.26
2023-09-26T14:45:39.872Z,22.21
2023-09-26T14:48:14.874Z,22.18
2023-09-26T14:50:41.516Z,22.20
2023-09-26T14:53:08.265Z,22.14
2023-09-26T14:55:35.132Z,22.06
2023-09-26T14:58:01.755Z,22.01
2023-09-26T15:00:32.722Z,21.90
2023-09-26T15:03:01.328Z,21.82
2023-09-26T15:05:28.128Z,21.83
2023-09-26T15:07:54.864Z,21.73
2023-09-26T15:10:21.495Z,21.71
2023-09-26T15:12:48.102Z,21.67
2023-09-26T15:15:15.136Z,21.60
2023-09-26T15:17:41.856Z,21.59
2023-09-26T15:20:08.993Z,21.63
2023-09-26T15:22:36.238Z,21.70
2023-09-26T15:25:03.379Z,21.69
2023-09-26T15:27:29.954Z,21.62
2023-09-26T15:29:56.691Z,21.51
2023-09-26T15:32:23.873Z,21.50
2023-09-26T15:34:50.728Z,21.47
2023-09-26T15:37:17.567Z,21.41
2023-09-26T15:39:44.223Z,21.30
2023-09-26T15:42:10.839Z,21.20
2023-09-26T15:44:40.490Z,21.10
2023-09-26T15:47:08.506Z,21.07
2023-09-26T15:49:49.352Z,21.04
2023-09-26T15:52:17.062Z,21.05
2023-09-26T15:54:43.668Z,20.99
2023-09-26T15:57:11.256Z,20.92
2023-09-26T15:59:38.064Z,20.94
2023-09-26T16:02:06.206Z,20.86
2023-09-26T16:04:34.176Z,20.82
2023-09-26T16:07:03.052Z,20.84
2023-09-26T16:09:29.998Z,20.82
2023-09-26T16:11:56.701Z,20.73
2023-09-26T16:14:23.705Z,20.59
2023-09-26T16:16:50.581Z,20.60
2023-09-26T16:19:18.781Z,20.58
2023-09-26T16:21:45.722Z,20.47
2023-09-26T16:24:12.330Z,20.39
2023-09-26T16:26:39.068Z,20.35
2023-09-26T16:29:05.938Z,20.33
2023-09-26T16:31:33.287Z,20.18
2023-09-26T16:34:00.097Z,20.07
2023-09-26T16:36:26.895Z,20.03
2023-09-26T16:38:53.779Z,20.03
2023-09-26T16:41:20.539Z,19.96
2023-09-26T16:43:47.493Z,19.89
2023-09-26T16:46:14.301Z,19.78
2023-09-26T16:48:41.228Z,19.68
2023-09-26T16:51:09.286Z,19.60
2023-09-26T16:53:39.697Z,19.46
2023-09-26T16:56:06.396Z,19.40
2023-09-26T16:58:33.648Z,19.38
2023-09-26T17:01:10.614Z,19.34
2023-09-26T17:03:37.564Z,19.25
2023-09-26T17:06:08.358Z,19.15
2023-09-26T17:08:35.623Z,19.09
2023-09-26T17:11:03.029Z,19.03
2023-09-26T17:13:30.327Z,18.95
2023-09-26T17:15:58.149Z,18.89
2023-09-26T17:18:25.465Z,18.83
2023-09-26T17:20:55.621Z,18.78
2023-09-26T17:23:23.880Z,18.72
2023-09-26T17:25:51.705Z,18.66
2023-09-26T17:28:18.592Z,18.64
2023-09-26T17:30:46.196Z,18.61
2023-09-26T17:33:14.364Z,18.57
2023-09-26T17:35:43.668Z,18.52
2023-09-26T17:38:10.687Z,18.48
2023-09-26T17:40:37.587Z,18.43
2023-09-26T17:43:04.577Z,18.39
2023-09-26T17:45:31.292Z,18.34
2023-09-26T17:47:58.098Z,18.32
2023-09-26T17:50:24.714Z,18.26
2023-09-26T17:52:51.332Z,18.22
2023-09-26T17:55:18.023Z,18.18
2023-09-26T17:57:44.623Z,18.15
2023-09-26T18:00:12.030Z,18.14
2023-09-26T18:02:38.838Z,18.11
2023-09-26T18:05:06.254Z,18.07
2023-09-26T18:07:32.871Z,18.02
2023-09-26T18:09:59.540Z,18.01
2023-09-26T18:12:26.175Z,17.96
2023-09-26T18:14:52.909Z,17.92
2023-09-26T18:17:19.620Z,17.89
2023-09-26T18:19:46.278Z,17.85
2023-09-26T18:22:12.885Z,17.82
2023-09-26T18:24:39.535Z,17.79
2023-09-26T18:27:06.336Z,17.73
2023-09-26T18:29:33.084Z,17.68
2023-09-26T18:32:00.068Z,17.65
2023-09-26T18:34:26.937Z,17.59
2023-09-26T18:36:53.709Z,17.54
2023-09-26T18:39:20.609Z,17.49
2023-09-26T18:41:47.441Z,17.43
2023-09-26T18:44:14.393Z,17.39
2023-09-26T18:46:41.333Z,17.35
2023-09-26T18:49:07.923Z,17.34
2023-09-26T18:51:34.536Z,17.31
2023-09-26T18:54:01.227Z,17.29
2023-09-26T18:56:27.827Z,17.26
2023-09-26T18:58:54.433Z,17.21
2023-09-26T19:01:21.240Z,17.18
2023-09-26T19:03:48.231Z,17.15
2023-09-26T19:06:15.483Z,17.08
2023-09-26T19:08:42.462Z,17.05
2023-09-26T19:11:09.166Z,17.03
2023-09-26T19:13:35.880Z,16.97
2023-09-26T19:16:02.552Z,16.97
2023-09-26T19:18:29.188Z,16.95
2023-09-26T19:20:55.777Z,16.92
2023-09-26T19:23:22.702Z,16.94
2023-09-26T19:25:50.068Z,16.93
2023-09-26T19:28:16.832Z,16.91
2023-09-26T19:30:45.049Z,16.88
2023-09-26T19:33:12.085Z,16.83
2023-09-26T19:35:39.262Z,16.82
2023-09-26T19:38:08.214Z,16.78
2023-09-26T19:40:35.178Z,16.77
2023-09-26T19:43:04.462Z,16.74
2023-09-26T19:45:32.124Z,16.71
2023-09-26T19:47:58.925Z,16.64
2023-09-26T19:50:27.082Z,16.60
2023-09-26T19:52:53.975Z,16.57
2023-09-26T19:55:20.709Z,16.54
2023-09-26T19:57:48.281Z,16.55
2023-09-26T20:00:16.084Z,16.50
2023-09-26T20:02:43.729Z,16.49
2023-09-26T20:05:11.230Z,16.42
2023-09-26T20:07:38.124Z,16.39
2023-09-26T20:10:05.173Z,16.34
2023-09-26T20:12:31.899Z,16.31
2023-09-26T20:14:58.687Z,16.28
2023-09-26T20:17:25.474Z,16.26
2023-09-26T20:19:52.487Z,16.28
2023-09-26T20:22:19.111Z,16.23
2023-09-26T20:24:45.752Z,16.21
2023-09-26T20:27:12.402Z,16.18
2023-09-26T20:29:39.179Z,16.12
2023-09-26T20:32:05.844Z,16.10
2023-09-26T20:34:32.579Z,16.06
2023-09-26T20:36:59.265Z,16.07
2023-09-26T20:39:29.047Z,16.08
2023-09-26T20:41:56.346Z,16.04
2023-09-26T20:44:23.042Z,16.04
2023-09-26T20:46:49.779Z,16.01
2023-09-26T20:49:16.402Z,16.01
2023-09-26T20:51:43.107Z,15.99
2023-09-26T20:54:09.753Z,15.93
2023-09-26T20:56:36.327Z,15.87
2023-09-26T20:59:03.116Z,15.82
2023-09-26T21:01:29.820Z,15.79
2023-09-26T21:03:56.557Z,15.77
2023-09-26T21:06:23.369Z,15.74
2023-09-26T21:08:50.001Z,15.70
2023-09-26T21:11:16.870Z,15.69
2023-09-26T21:13:43.724Z,15.71
2023-09-26T21:16:16.151Z,15.61
2023-09-26T21:18:45.888Z,15.60
2023-09-26T21:21:19.543Z,15.54
2023-09-26T21:23:47.725Z,15.51
2023-09-26T21:26:14.400Z,15.49
2023-09-26T21:28:41.176Z,15.48
2023-09-26T21:31:08.113Z,15.50
2023-09-26T21:33:35.845Z,15.48
2023-09-26T21:36:03.618Z,15.44
2023-09-26T21:38:30.357Z,15.37
2023-09-26T21:40:57.019Z,15.36
2023-09-26T21:43:24.992Z,15.38
2023-09-26T21:45:55.326Z,15.36
2023-09-26T21:48:22.131Z,15.36
2023-09-26T21:50:49.649Z,15.40
2023-09-26T21:53:16.417Z,15.36
2023-09-26T21:55:43.216Z,15.35
2023-09-26T21:58:09.841Z,15.31
2023-09-26T22:00:36.722Z,15.32
2023-09-26T22:03:03.706Z,15.30
2023-09-26T22:05:31.434Z,15.32
2023-09-26T22:07:59.528Z,15.33
2023-09-26T22:10:28.011Z,15.29
2023-09-26T22:12:54.990Z,15.20
2023-09-26T22:15:22.142Z,15.16
2023-09-26T22:17:48.805Z,15.15
2023-09-26T22:20:17.213Z,15.14
2023-09-26T22:22:44.885Z,15.09
2023-09-26T22:25:13.247Z,15.07
2023-09-26T22:27:40.574Z,15.01
2023-09-26T22:30:10.340Z,14.96
2023-09-26T22:32:37.489Z,14.97
2023-09-26T22:35:04.675Z,14.99
2023-09-26T22:37:31.393Z,15.00
2023-09-26T22:39:58.097Z,15.04
2023-09-26T22:42:24.766Z,15.01
2023-09-26T22:44:53.475Z,14.94
2023-09-26T22:47:20.292Z,14.89
2023-09-26T22:49:46.969Z,14.93
2023-09-26T22:52:13.831Z,14.95
2023-09-26T22:54:40.483Z,14.89
2023-09-26T22:57:07.116Z,14.90
2023-09-26T22:59:33.798Z,14.85
2023-09-26T23:02:00.490Z,14.82
2023-09-26T23:04:27.148Z,14.83
2023-09-26T23:06:57.035Z,14.76
2023-09-26T23:09:23.639Z,14.68
2023-09-26T23:11:53.213Z,14.68
2023-09-26T23:14:20.052Z,14.65
2023-09-26T23:16:48.114Z,14.58
2023-09-26T23:19:15.223Z,14.58
2023-09-26T23:21:41.907Z,14.58
2023-09-26T23:24:08.494Z,14.54
2023-09-26T23:26:35.170Z,14.56
2023-09-26T23:29:02.072Z,14.56
2023-09-26T23:31:28.824Z,14.58
2023-09-26T23:33:56.056Z,14.63
2023-09-26T23:36:22.665Z,14.52
2023-09-26T23:38:49.548Z,14.52
2023-09-26T23:41:16.270Z,14.54
2023-09-26T23:43:42.981Z,14.53
2023-09-26T23:46:09.649Z,14.51
2023-09-26T23:48:36.282Z,14.46
2023-09-26T23:51:05.154Z,14.43
2023-09-26T23:53:31.785Z,14.48
2023-09-26T23:55:58.475Z,14.43
2023-09-26T23:58:25.131Z,14.37
